createdAt,value
2022-08-25T00:01:32.174Z,99.90
2022-08-25T00:04:00.436Z,99.90
2022-08-25T00:06:28.988Z,99.90
2022-08-25T00:08:59.459Z,99.90
2022-08-25T00:11:29.033Z,99.90
2022-08-25T00:14:00.414Z,99.90
2022-08-25T00:16:31.311Z,99.90
2022-08-25T00:19:04.513Z,99.90
2022-08-25T00:21:31.818Z,99.90
2022-08-25T00:23:59.898Z,99.90
2022-08-25T00:26:27.736Z,99.90
2022-08-25T00:29:01.151Z,99.90
2022-08-25T00:31:37.660Z,99.90
2022-08-25T00:34:09.037Z,99.90
2022-08-25T00:36:35.754Z,99.90
2022-08-25T00:39:02.480Z,99.90
2022-08-25T00:41:29.497Z,99.90
2022-08-25T00:44:00.393Z,99.90
2022-08-25T00:46:36.954Z,99.90
2022-08-25T00:49:25.062Z,99.90
2022-08-25T00:52:16.371Z,99.90
2022-08-25T00:54:51.927Z,99.90
2022-08-25T00:57:34.900Z,99.90
2022-08-25T01:00:08.059Z,99.90
2022-08-25T01:02:34.757Z,99.90
2022-08-25T01:05:01.770Z,99.90
2022-08-25T01:07:28.638Z,99.90
2022-08-25T01:09:55.641Z,99.90
2022-08-25T01:12:22.686Z,99.90
2022-08-25T01:14:51.140Z,99.90
2022-08-25T01:17:18.141Z,99.90
2022-08-25T01:19:44.967Z,99.90
2022-08-25T01:22:12.273Z,99.90
2022-08-25T01:25:07.651Z,99.90
2022-08-25T01:27:34.307Z,99.90
2022-08-25T01:30:01.010Z,99.90
2022-08-25T01:32:27.660Z,99.90
2022-08-25T01:34:54.897Z,99.90
2022-08-25T01:37:21.557Z,99.90
2022-08-25T01:39:48.722Z,99.90
2022-08-25T01:42:49.135Z,99.90
2022-08-25T01:45:16.122Z,99.90
2022-08-25T01:47:42.788Z,99.90
2022-08-25T01:50:09.808Z,99.90
2022-08-25T01:52:51.871Z,99.90
2022-08-25T01:55:18.720Z,99.90
2022-08-25T01:57:46.221Z,99.90
2022-08-25T02:00:15.133Z,99.90
2022-08-25T02:02:42.727Z,99.90
2022-08-25T02:05:13.976Z,99.90
2022-08-25T02:07:42.363Z,99.90
2022-08-25T02:10:11.497Z,99.90
2022-08-25T02:12:38.354Z,99.90
2022-08-25T02:15:08.011Z,99.90
2022-08-25T02:17:36.598Z,99.90
2022-08-25T02:20:07.504Z,99.90
2022-08-25T02:22:34.222Z,99.90
2022-08-25T02:25:01.112Z,99.90
2022-08-25T02:27:28.315Z,99.90
2022-08-25T02:29:54.966Z,99.90
2022-08-25T02:32:21.651Z,99.90
2022-08-25T02:34:48.418Z,99.90
2022-08-25T02:37:15.238Z,99.90
2022-08-25T02:39:41.926Z,99.90
2022-08-25T02:42:08.677Z,99.90
2022-08-25T02:44:35.353Z,99.90
2022-08-25T02:47:03.026Z,99.90
2022-08-25T02:49:30.624Z,99.90
2022-08-25T02:51:58.641Z,99.90
2022-08-25T02:54:26.037Z,99.90
2022-08-25T02:56:52.898Z,99.90
2022-08-25T02:59:19.703Z,99.90
2022-08-25T03:01:46.381Z,99.90
2022-08-25T03:04:13.406Z,99.90
2022-08-25T03:06:40.778Z,99.90
2022-08-25T03:09:07.845Z,99.90
2022-08-25T03:11:34.961Z,99.90
2022-08-25T03:14:01.681Z,99.90
2022-08-25T03:16:28.427Z,99.90
2022-08-25T03:18:55.874Z,99.90
2022-08-25T03:21:22.857Z,99.90
2022-08-25T03:23:49.481Z,99.90
2022-08-25T03:26:35.582Z,99.90
2022-08-25T03:29:05.437Z,99.90
2022-08-25T03:31:33.711Z,99.90
2022-08-25T03:34:00.703Z,99.90
2022-08-25T03:36:27.751Z,99.90
2022-08-25T03:38:55.392Z,99.90
2022-08-25T03:41:27.745Z,99.90
2022-08-25T03:43:55.624Z,99.90
2022-08-25T03:46:26.254Z,99.90
2022-08-25T03:48:53.678Z,99.90
2022-08-25T03:51:23.133Z,99.90
2022-08-25T03:53:52.111Z,99.90
2022-08-25T03:56:19.087Z,99.90
2022-08-25T03:58:46.489Z,99.90
2022-08-25T04:01:13.546Z,99.90
2022-08-25T04:03:42.166Z,99.90
2022-08-25T04:06:09.874Z,99.90
2022-08-25T04:08:37.119Z,99.90
2022-08-25T04:11:18.706Z,99.90
2022-08-25T04:13:46.640Z,99.90
2022-08-25T04:16:22.326Z,99.90
2022-08-25T04:18:50.747Z,99.90
2022-08-25T04:21:19.100Z,99.90
2022-08-25T04:23:47.855Z,99.90
2022-08-25T04:26:19.254Z,99.90
2022-08-25T04:28:46.862Z,99.90
2022-08-25T04:31:15.301Z,99.90
2022-08-25T04:33:42.321Z,99.90
2022-08-25T04:36:12.470Z,99.90
2022-08-25T04:38:40.698Z,99.90
2022-08-25T04:41:11.091Z,99.90
2022-08-25T04:43:39.558Z,99.90
2022-08-25T04:46:09.082Z,99.90
2022-08-25T04:48:36.123Z,99.90
2022-08-25T04:51:07.583Z,99.90
2022-08-25T04:53:35.101Z,99.90
2022-08-25T04:56:04.036Z,99.90
2022-08-25T04:58:30.931Z,99.90
2022-08-25T05:01:06.454Z,99.90
2022-08-25T05:03:33.310Z,99.90
2022-08-25T05:06:00.467Z,99.90
2022-08-25T05:08:27.234Z,99.90
2022-08-25T05:10:56.507Z,99.90
2022-08-25T05:13:25.567Z,99.90
2022-08-25T05:15:58.345Z,99.90
2022-08-25T05:18:29.802Z,99.90
2022-08-25T05:20:57.378Z,99.90
2022-08-25T05:23:25.340Z,99.90
2022-08-25T05:25:52.790Z,99.90
2022-08-25T05:28:20.581Z,99.90
2022-08-25T05:30:49.461Z,99.90
2022-08-25T05:33:18.326Z,99.90
2022-08-25T05:35:45.058Z,99.90
2022-08-25T05:38:15.441Z,99.90
2022-08-25T05:40:42.570Z,99.90
2022-08-25T05:43:10.266Z,99.90
2022-08-25T05:45:37.177Z,99.90
2022-08-25T05:48:04.025Z,99.90
2022-08-25T05:50:30.814Z,99.90
2022-08-25T05:52:57.502Z,99.90
2022-08-25T05:55:24.590Z,99.90
2022-08-25T05:57:51.265Z,99.90
2022-08-25T06:00:18.841Z,99.90
2022-08-25T06:02:46.671Z,99.90
2022-08-25T06:05:21.891Z,99.90
2022-08-25T06:07:50.883Z,99.90
2022-08-25T06:10:20.086Z,99.90
2022-08-25T06:12:47.429Z,99.90
2022-08-25T06:15:21.966Z,99.90
2022-08-25T06:17:49.800Z,99.90
2022-08-25T06:20:22.200Z,99.90
2022-08-25T06:22:53.046Z,99.90
2022-08-25T06:25:22.398Z,99.90
2022-08-25T06:27:49.790Z,99.90
2022-08-25T06:30:23.735Z,99.90
2022-08-25T06:32:51.920Z,99.90
2022-08-25T06:35:20.128Z,99.90
2022-08-25T06:37:47.455Z,99.90
2022-08-25T06:40:16.343Z,99.90
2022-08-25T06:42:47.992Z,99.90
2022-08-25T06:45:15.159Z,99.90
2022-08-25T06:47:42.739Z,99.90
2022-08-25T06:50:12.196Z,99.90
2022-08-25T06:52:38.932Z,99.90
2022-08-25T06:55:06.695Z,99.90
2022-08-25T06:57:35.671Z,99.90
2022-08-25T07:00:05.701Z,99.90
2022-08-25T07:02:33.172Z,99.90
2022-08-25T07:05:02.823Z,99.90
2022-08-25T07:07:42.909Z,99.90
2022-08-25T07:10:11.245Z,99.90
2022-08-25T07:12:37.919Z,99.90
2022-08-25T07:15:21.223Z,99.90
2022-08-25T07:17:49.084Z,99.90
2022-08-25T07:20:19.266Z,99.90
2022-08-25T07:22:46.616Z,99.90
2022-08-25T07:25:13.692Z,99.90
2022-08-25T07:27:42.401Z,99.20
2022-08-25T07:30:11.249Z,98.90
2022-08-25T07:32:41.971Z,98.30
2022-08-25T07:35:19.136Z,98.30
2022-08-25T07:37:57.887Z,97.80
2022-08-25T07:40:30.042Z,97.30
2022-08-25T07:42:58.828Z,96.20
2022-08-25T07:45:31.836Z,95.40
2022-08-25T07:48:01.725Z,95.50
2022-08-25T07:50:29.874Z,94.70
2022-08-25T07:52:57.867Z,94.00
2022-08-25T07:55:26.479Z,93.80
2022-08-25T07:58:10.990Z,92.70
2022-08-25T08:00:39.349Z,94.20
2022-08-25T08:03:10.053Z,92.70
2022-08-25T08:05:42.838Z,92.50
2022-08-25T08:08:09.686Z,91.00
2022-08-25T08:11:03.183Z,90.50
2022-08-25T08:13:26.721Z,88.30
2022-08-25T08:15:53.566Z,88.20
2022-08-25T08:18:20.232Z,87.70
2022-08-25T08:20:49.100Z,86.60
2022-08-25T08:23:17.085Z,82.40
2022-08-25T08:25:44.328Z,81.80
2022-08-25T08:28:14.271Z,83.60
2022-08-25T08:30:52.913Z,78.20
2022-08-25T08:33:21.490Z,77.50
2022-08-25T08:35:48.307Z,73.60
2022-08-25T08:38:20.843Z,72.70
2022-08-25T08:41:23.855Z,69.10
2022-08-25T08:43:59.019Z,66.90
2022-08-25T08:46:33.767Z,66.30
2022-08-25T08:49:02.148Z,66.50
2022-08-25T08:51:38.468Z,65.40
2022-08-25T08:54:18.537Z,61.60
2022-08-25T08:56:49.293Z,60.30
2022-08-25T08:59:21.616Z,58.10
2022-08-25T09:01:56.491Z,59.60
2022-08-25T09:04:32.969Z,57.10
2022-08-25T09:07:02.619Z,56.10
2022-08-25T09:09:35.819Z,53.70
2022-08-25T09:12:41.672Z,54.50
2022-08-25T09:15:54.723Z,53.40
2022-08-25T09:18:40.367Z,54.50
2022-08-25T09:21:18.424Z,55.60
2022-08-25T09:24:06.314Z,53.70
2022-08-25T09:26:39.777Z,52.30
2022-08-25T09:29:27.627Z,47.30
2022-08-25T09:31:59.426Z,47.40
2022-08-25T09:34:33.373Z,46.40
2022-08-25T09:37:01.035Z,45.10
2022-08-25T09:39:28.096Z,43.50
2022-08-25T09:42:00.186Z,45.60
2022-08-25T09:44:39.206Z,45.60
2022-08-25T09:47:19.925Z,43.20
2022-08-25T09:49:49.810Z,44.90
2022-08-25T09:52:28.415Z,44.50
2022-08-25T09:54:56.864Z,43.40
2022-08-25T09:57:34.834Z,44.00
2022-08-25T10:00:10.719Z,41.70
2022-08-25T10:02:37.606Z,40.70
2022-08-25T10:05:23.386Z,39.80
2022-08-25T10:07:57.701Z,39.70
2022-08-25T10:10:38.194Z,37.40
2022-08-25T10:13:22.924Z,36.40
2022-08-25T10:16:24.876Z,36.90
2022-08-25T10:19:09.960Z,33.80
2022-08-25T10:21:39.944Z,33.60
2022-08-25T10:24:09.962Z,31.90
2022-08-25T10:26:48.546Z,31.20
2022-08-25T10:29:38.790Z,33.00
2022-08-25T10:32:21.858Z,34.50
2022-08-25T10:34:58.354Z,33.60
2022-08-25T10:37:41.721Z,33.20
2022-08-25T10:40:16.434Z,30.10
2022-08-25T10:42:54.593Z,31.70
2022-08-25T10:45:45.257Z,30.00
2022-08-25T10:48:38.348Z,29.90
2022-08-25T10:51:25.307Z,30.00
2022-08-25T10:54:16.599Z,29.40
2022-08-25T10:57:12.582Z,29.90
2022-08-25T10:59:49.908Z,29.60
2022-08-25T11:02:53.121Z,27.90
2022-08-25T11:05:31.817Z,28.50
2022-08-25T11:08:10.403Z,26.50
2022-08-25T11:10:50.358Z,30.50
2022-08-25T11:13:29.864Z,29.60
2022-08-25T11:16:17.018Z,30.00
2022-08-25T11:18:54.081Z,29.70
2022-08-25T11:21:28.995Z,30.60
2022-08-25T11:24:09.110Z,29.80
2022-08-25T11:26:41.203Z,32.00
2022-08-25T11:29:17.955Z,33.20
2022-08-25T11:31:54.036Z,32.70
2022-08-25T11:34:22.159Z,32.50
2022-08-25T11:37:01.041Z,35.40
2022-08-25T11:40:18.161Z,28.50
2022-08-25T11:43:20.580Z,28.00
2022-08-25T11:46:26.150Z,28.20
2022-08-25T11:49:26.376Z,24.60
2022-08-25T11:51:53.493Z,24.90
2022-08-25T11:54:24.888Z,26.80
2022-08-25T11:57:17.789Z,23.00
2022-08-25T11:59:57.245Z,24.20
2022-08-25T12:02:33.046Z,28.90
2022-08-25T12:05:00.197Z,37.10
2022-08-25T12:08:13.324Z,26.90
2022-08-25T12:11:10.617Z,30.60
2022-08-25T12:13:42.677Z,33.90
2022-08-25T12:16:36.101Z,28.60
2022-08-25T12:19:28.671Z,27.80
2022-08-25T12:22:03.382Z,31.80
2022-08-25T12:24:47.546Z,24.60
2022-08-25T12:27:45.750Z,27.70
2022-08-25T12:30:18.580Z,31.20
2022-08-25T12:33:00.781Z,31.40
2022-08-25T12:35:50.497Z,30.00
2022-08-25T12:38:28.194Z,27.40
2022-08-25T12:41:07.320Z,28.50
2022-08-25T12:43:37.871Z,30.80
2022-08-25T12:46:23.072Z,30.20
2022-08-25T12:49:12.003Z,25.70
2022-08-25T12:52:00.360Z,30.60
2022-08-25T12:54:44.116Z,27.30
2022-08-25T12:57:29.545Z,26.70
2022-08-25T12:59:59.377Z,34.00
2022-08-25T13:02:40.194Z,28.00
2022-08-25T13:05:38.364Z,28.20
2022-08-25T13:08:20.986Z,31.00
2022-08-25T13:11:16.869Z,30.30
2022-08-25T13:14:07.711Z,29.80
2022-08-25T13:16:37.212Z,28.40
2022-08-25T13:19:06.796Z,34.50
2022-08-25T13:21:38.830Z,32.30
2022-08-25T13:24:09.462Z,33.40
2022-08-25T13:26:47.110Z,29.90
2022-08-25T13:29:25.140Z,30.10
2022-08-25T13:31:54.897Z,29.80
2022-08-25T13:34:34.589Z,46.90
2022-08-25T13:37:29.578Z,41.00
2022-08-25T13:40:29.706Z,39.70
2022-08-25T13:43:01.134Z,37.40
2022-08-25T13:45:31.716Z,40.20
2022-08-25T13:47:59.153Z,29.70
2022-08-25T13:50:26.473Z,46.70
2022-08-25T13:52:57.578Z,54.80
2022-08-25T13:55:50.842Z,30.50
2022-08-25T13:58:32.500Z,32.40
2022-08-25T14:01:47.665Z,36.70
2022-08-25T14:04:39.484Z,31.50
2022-08-25T14:07:20.898Z,31.00
2022-08-25T14:09:58.074Z,30.70
2022-08-25T14:12:45.400Z,30.20
2022-08-25T14:15:18.510Z,29.70
2022-08-25T14:17:49.515Z,28.70
2022-08-25T14:20:29.134Z,31.20
2022-08-25T14:22:59.283Z,30.40
2022-08-25T14:25:27.773Z,31.30
2022-08-25T14:28:08.259Z,34.80
2022-08-25T14:30:38.988Z,29.20
2022-08-25T14:33:07.011Z,29.10
2022-08-25T14:35:34.429Z,27.10
2022-08-25T14:38:08.386Z,27.50
2022-08-25T14:40:35.375Z,26.80
2022-08-25T14:43:02.273Z,35.60
2022-08-25T14:45:31.094Z,31.20
2022-08-25T14:48:04.263Z,34.40
2022-08-25T14:50:38.216Z,36.10
2022-08-25T14:53:11.322Z,29.20
2022-08-25T14:55:39.688Z,36.30
2022-08-25T14:58:07.069Z,34.40
2022-08-25T15:00:37.325Z,31.80
2022-08-25T15:03:04.204Z,34.20
2022-08-25T15:05:31.845Z,27.80
2022-08-25T15:08:17.265Z,29.40
2022-08-25T15:10:44.450Z,33.30
2022-08-25T15:13:11.279Z,44.00
2022-08-25T15:15:52.963Z,53.70
2022-08-25T15:18:21.688Z,51.00
2022-08-25T15:20:50.120Z,41.90
2022-08-25T15:23:18.767Z,42.20
2022-08-25T15:25:52.893Z,28.90
2022-08-25T15:28:22.272Z,42.20
2022-08-25T15:30:49.961Z,30.30
2022-08-25T15:33:17.363Z,30.80
2022-08-25T15:35:44.278Z,28.80
2022-08-25T15:38:12.593Z,28.40
2022-08-25T15:40:39.376Z,27.80
2022-08-25T15:43:06.943Z,28.80
2022-08-25T15:45:36.001Z,26.90
2022-08-25T15:48:04.280Z,28.70
2022-08-25T15:50:33.622Z,27.20
2022-08-25T15:53:00.887Z,29.60
2022-08-25T15:55:27.860Z,29.20
2022-08-25T15:57:55.810Z,31.20
2022-08-25T16:00:22.890Z,27.50
2022-08-25T16:02:50.414Z,27.80
2022-08-25T16:05:17.986Z,28.00
2022-08-25T16:07:51.680Z,34.50
2022-08-25T16:10:19.232Z,32.10
2022-08-25T16:12:48.501Z,30.00
2022-08-25T16:15:15.985Z,30.40
2022-08-25T16:17:45.972Z,29.30
2022-08-25T16:20:17.097Z,26.10
2022-08-25T16:22:44.786Z,29.90
2022-08-25T16:25:12.115Z,29.50
2022-08-25T16:27:39.289Z,29.70
2022-08-25T16:30:17.412Z,38.10
2022-08-25T16:32:45.291Z,34.20
2022-08-25T16:35:13.255Z,36.50
2022-08-25T16:37:40.594Z,36.70
2022-08-25T16:40:13.301Z,38.70
2022-08-25T16:42:41.931Z,49.60
2022-08-25T16:45:09.040Z,47.80
2022-08-25T16:47:38.052Z,47.90
2022-08-25T16:50:09.177Z,50.30
2022-08-25T16:52:56.110Z,44.40
2022-08-25T16:55:25.657Z,41.50
2022-08-25T16:57:54.132Z,41.30
2022-08-25T17:00:25.807Z,47.00
2022-08-25T17:02:59.291Z,46.70
2022-08-25T17:05:28.197Z,43.60
2022-08-25T17:08:14.922Z,42.30
2022-08-25T17:10:43.422Z,43.20
2022-08-25T17:13:10.840Z,46.50
2022-08-25T17:15:43.418Z,46.00
2022-08-25T17:18:12.672Z,48.60
2022-08-25T17:20:41.100Z,45.30
2022-08-25T17:23:12.418Z,39.00
2022-08-25T17:25:42.895Z,50.10
2022-08-25T17:28:12.205Z,47.80
2022-08-25T17:30:40.091Z,47.70
2022-08-25T17:33:06.815Z,54.60
2022-08-25T17:35:42.758Z,54.70
2022-08-25T17:38:11.220Z,46.80
2022-08-25T17:40:38.719Z,51.50
2022-08-25T17:43:05.907Z,51.50
2022-08-25T17:45:36.262Z,51.90
2022-08-25T17:48:04.057Z,44.80
2022-08-25T17:50:31.584Z,43.30
2022-08-25T17:53:00.978Z,42.40
2022-08-25T17:55:27.670Z,40.10
2022-08-25T17:57:54.312Z,41.70
2022-08-25T18:00:22.662Z,43.60
2022-08-25T18:02:50.763Z,41.90
2022-08-25T18:05:18.145Z,43.20
2022-08-25T18:07:45.047Z,46.90
2022-08-25T18:10:12.608Z,43.40
2022-08-25T18:12:39.403Z,41.50
2022-08-25T18:15:08.176Z,40.20
2022-08-25T18:17:36.366Z,41.80
2022-08-25T18:20:08.568Z,43.60
2022-08-25T18:22:36.020Z,42.40
2022-08-25T18:25:06.756Z,44.50
2022-08-25T18:27:34.570Z,45.40
2022-08-25T18:30:02.016Z,44.60
2022-08-25T18:32:29.310Z,45.50
2022-08-25T18:34:56.893Z,45.00
2022-08-25T18:37:42.798Z,44.60
2022-08-25T18:40:25.559Z,45.00
2022-08-25T18:43:01.960Z,46.10
2022-08-25T18:45:33.340Z,47.60
2022-08-25T18:48:00.682Z,47.70
2022-08-25T18:50:32.653Z,50.30
2022-08-25T18:53:00.294Z,47.70
2022-08-25T18:55:28.173Z,47.10
2022-08-25T18:57:55.798Z,46.30
2022-08-25T19:00:26.597Z,46.40
2022-08-25T19:02:55.937Z,51.10
2022-08-25T19:05:34.122Z,61.70
2022-08-25T19:08:03.729Z,51.40
2022-08-25T19:10:31.318Z,51.10
2022-08-25T19:12:59.217Z,66.00
2022-08-25T19:15:35.650Z,63.00
2022-08-25T19:18:04.241Z,51.40
2022-08-25T19:20:34.494Z,69.70
2022-08-25T19:23:02.052Z,72.10
2022-08-25T19:25:33.149Z,60.10
2022-08-25T19:28:01.684Z,66.00
2022-08-25T19:30:30.031Z,65.40
2022-08-25T19:32:57.602Z,66.00
2022-08-25T19:35:32.093Z,67.30
2022-08-25T19:38:00.301Z,66.50
2022-08-25T19:40:29.079Z,72.20
2022-08-25T19:42:55.917Z,73.50
2022-08-25T19:45:23.622Z,72.20
2022-08-25T19:47:50.645Z,73.80
2022-08-25T19:50:18.294Z,74.40
2022-08-25T19:52:46.931Z,78.50
2022-08-25T19:55:17.218Z,82.50
2022-08-25T19:57:44.334Z,87.20
2022-08-25T20:00:17.442Z,89.20
2022-08-25T20:02:44.709Z,92.70
2022-08-25T20:05:12.213Z,91.80
2022-08-25T20:07:39.082Z,92.40
2022-08-25T20:10:08.748Z,92.50
2022-08-25T20:12:41.710Z,97.60
2022-08-25T20:15:09.783Z,97.80
2022-08-25T20:17:36.529Z,98.30
2022-08-25T20:20:11.270Z,93.80
2022-08-25T20:22:38.153Z,97.90
2022-08-25T20:25:15.217Z,99.60
2022-08-25T20:27:48.048Z,99.70
2022-08-25T20:30:27.841Z,98.50
2022-08-25T20:32:57.514Z,98.50
2022-08-25T20:35:27.317Z,99.90
2022-08-25T20:37:55.937Z,99.90
2022-08-25T20:40:25.550Z,99.90
2022-08-25T20:42:53.383Z,99.90
2022-08-25T20:45:21.781Z,99.90
2022-08-25T20:47:49.939Z,99.90
2022-08-25T20:50:18.152Z,99.90
2022-08-25T20:52:45.200Z,99.90
2022-08-25T20:55:12.282Z,99.90
2022-08-25T20:57:39.423Z,99.90
2022-08-25T21:00:09.063Z,99.90
2022-08-25T21:02:36.541Z,99.90
2022-08-25T21:05:04.653Z,99.90
2022-08-25T21:07:31.824Z,99.90
2022-08-25T21:10:05.268Z,99.90
2022-08-25T21:12:32.133Z,99.90
2022-08-25T21:14:58.810Z,99.90
2022-08-25T21:17:25.497Z,99.90
2022-08-25T21:19:52.193Z,99.90
2022-08-25T21:22:19.276Z,99.90
2022-08-25T21:24:46.117Z,99.90
2022-08-25T21:27:13.168Z,99.90
2022-08-25T21:29:44.385Z,99.90
2022-08-25T21:32:11.684Z,99.90
2022-08-25T21:34:38.599Z,99.90
2022-08-25T21:37:05.448Z,99.90
2022-08-25T21:39:33.373Z,99.90
2022-08-25T21:42:00.677Z,99.90
2022-08-25T21:44:29.834Z,99.90
2022-08-25T21:46:56.977Z,99.90
2022-08-25T21:49:24.249Z,99.90
2022-08-25T21:52:00.417Z,99.90
2022-08-25T21:54:28.729Z,99.90
2022-08-25T21:56:59.372Z,99.90
2022-08-25T21:59:37.614Z,99.90
2022-08-25T22:02:10.124Z,99.90
2022-08-25T22:04:38.899Z,99.90
2022-08-25T22:07:06.903Z,99.90
2022-08-25T22:09:35.280Z,99.90
2022-08-25T22:12:02.219Z,99.90
2022-08-25T22:14:29.127Z,99.90
2022-08-25T22:16:55.972Z,99.90
2022-08-25T22:19:23.175Z,99.90
2022-08-25T22:21:52.829Z,99.90
2022-08-25T22:24:20.715Z,99.90
2022-08-25T22:26:49.144Z,99.90
2022-08-25T22:29:25.464Z,99.90
2022-08-25T22:32:02.027Z,99.90
2022-08-25T22:34:33.075Z,99.90
2022-08-25T22:37:04.994Z,99.90
2022-08-25T22:39:34.442Z,99.90
2022-08-25T22:42:01.905Z,99.90
2022-08-25T22:44:28.837Z,99.90
2022-08-25T22:46:55.570Z,99.90
2022-08-25T22:49:23.584Z,99.90
2022-08-25T22:51:50.874Z,99.90
2022-08-25T22:54:18.037Z,99.90
2022-08-25T22:56:44.833Z,99.90
2022-08-25T22:59:13.536Z,99.90
2022-08-25T23:01:40.990Z,99.90
2022-08-25T23:04:07.901Z,99.90
2022-08-25T23:06:34.833Z,99.90
2022-08-25T23:09:04.399Z,99.90
2022-08-25T23:11:31.318Z,99.90
2022-08-25T23:14:00.460Z,99.90
2022-08-25T23:16:28.594Z,99.90
2022-08-25T23:18:55.491Z,99.90
2022-08-25T23:21:42.423Z,99.90
2022-08-25T23:24:11.097Z,99.90
2022-08-25T23:26:42.564Z,99.90
2022-08-25T23:29:18.504Z,99.90
2022-08-25T23:31:47.776Z,99.90
2022-08-25T23:34:16.128Z,99.90
2022-08-25T23:36:43.924Z,99.90
2022-08-25T23:39:11.327Z,99.90
2022-08-25T23:41:38.729Z,99.90
2022-08-25T23:44:06.353Z,99.90
2022-08-25T23:46:36.716Z,99.90
2022-08-25T23:49:05.216Z,99.90
2022-08-25T23:51:38.187Z,99.90
2022-08-25T23:54:09.553Z,99.90
2022-08-25T23:56:42.276Z,99.90
2022-08-25T23:59:11.448Z,99.90
